sensor_id;sensor_type;location;lat;lon;timestamp;P1;durP1;ratioP1;P2;durP2;ratioP2
22935;SDS011;11633;42.716;23.312;2023-06-22T00:01:07;8.82;;;8.00;;
22935;SDS011;11633;42.716;23.312;2023-06-22T00:03:33;9.90;;;8.15;;
22935;SDS011;11633;42.716;23.312;2023-06-22T00:05:58;8.60;;;7.45;;
22935;SDS011;11633;42.716;23.312;2023-06-22T00:08:23;8.88;;;7.60;;
22935;SDS011;11633;42.716;23.312;2023-06-22T00:10:48;10.00;;;9.00;;
22935;SDS011;11633;42.716;23.312;2023-06-22T00:13:14;9.57;;;8.57;;
22935;SDS011;11633;42.716;23.312;2023-06-22T00:15:40;10.45;;;9.27;;
22935;SDS011;11633;42.716;23.312;2023-06-22T00:18:06;8.95;;;7.78;;
22935;SDS011;11633;42.716;23.312;2023-06-22T00:20:31;9.63;;;8.43;;
22935;SDS011;11633;42.716;23.312;2023-06-22T00:22:58;10.82;;;8.68;;
22935;SDS011;11633;42.716;23.312;2023-06-22T00:25:23;9.07;;;7.45;;
22935;SDS011;11633;42.716;23.312;2023-06-22T00:27:49;9.15;;;8.05;;
22935;SDS011;11633;42.716;23.312;2023-06-22T00:30:15;11.45;;;8.52;;
22935;SDS011;11633;42.716;23.312;2023-06-22T00:32:40;10.00;;;8.27;;
22935;SDS011;11633;42.716;23.312;2023-06-22T00:35:05;11.68;;;9.38;;
22935;SDS011;11633;42.716;23.312;2023-06-22T00:37:31;10.18;;;9.00;;
22935;SDS011;11633;42.716;23.312;2023-06-22T00:39:56;12.95;;;8.80;;
22935;SDS011;11633;42.716;23.312;2023-06-22T00:42:22;10.20;;;8.70;;
22935;SDS011;11633;42.716;23.312;2023-06-22T00:44:47;9.10;;;8.20;;
22935;SDS011;11633;42.716;23.312;2023-06-22T00:47:15;11.05;;;8.73;;
22935;SDS011;11633;42.716;23.312;2023-06-22T00:49:42;11.15;;;9.50;;
22935;SDS011;11633;42.716;23.312;2023-06-22T00:52:07;11.07;;;9.50;;
22935;SDS011;11633;42.716;23.312;2023-06-22T00:54:34;10.13;;;8.27;;
22935;SDS011;11633;42.716;23.312;2023-06-22T00:57:01;9.85;;;8.90;;
22935;SDS011;11633;42.716;23.312;2023-06-22T00:59:26;9.65;;;8.65;;
22935;SDS011;11633;42.716;23.312;2023-06-22T01:01:52;10.68;;;8.07;;
22935;SDS011;11633;42.716;23.312;2023-06-22T01:04:17;9.65;;;8.65;;
22935;SDS011;11633;42.716;23.312;2023-06-22T01:07:00;9.38;;;8.05;;
22935;SDS011;11633;42.716;23.312;2023-06-22T01:09:31;8.52;;;7.68;;
22935;SDS011;11633;42.716;23.312;2023-06-22T01:12:00;9.57;;;8.63;;
22935;SDS011;11633;42.716;23.312;2023-06-22T01:16:54;8.45;;;7.60;;
22935;SDS011;11633;42.716;23.312;2023-06-22T01:21:49;11.85;;;8.43;;
22935;SDS011;11633;42.716;23.312;2023-06-22T01:27:13;8.48;;;7.68;;
22935;SDS011;11633;42.716;23.312;2023-06-22T01:29:46;8.52;;;7.65;;
22935;SDS011;11633;42.716;23.312;2023-06-22T01:32:12;8.90;;;8.10;;
22935;SDS011;11633;42.716;23.312;2023-06-22T01:34:38;9.65;;;8.68;;
22935;SDS011;11633;42.716;23.312;2023-06-22T01:37:05;8.13;;;6.78;;
22935;SDS011;11633;42.716;23.312;2023-06-22T01:39:31;8.00;;;7.20;;
22935;SDS011;11633;42.716;23.312;2023-06-22T01:41:56;9.35;;;7.75;;
22935;SDS011;11633;42.716;23.312;2023-06-22T01:44:22;9.07;;;8.15;;
22935;SDS011;11633;42.716;23.312;2023-06-22T01:46:48;8.32;;;7.53;;
22935;SDS011;11633;42.716;23.312;2023-06-22T01:49:14;8.23;;;7.43;;
22935;SDS011;11633;42.716;23.312;2023-06-22T01:51:39;8.63;;;7.60;;
22935;SDS011;11633;42.716;23.312;2023-06-22T01:54:05;8.50;;;7.40;;
22935;SDS011;11633;42.716;23.312;2023-06-22T01:56:31;8.55;;;7.70;;
22935;SDS011;11633;42.716;23.312;2023-06-22T01:59:08;13.93;;;7.90;;
22935;SDS011;11633;42.716;23.312;2023-06-22T02:01:36;10.45;;;7.57;;
22935;SDS011;11633;42.716;23.312;2023-06-22T02:04:06;7.35;;;6.47;;
22935;SDS011;11633;42.716;23.312;2023-06-22T02:06:33;8.00;;;7.03;;
22935;SDS011;11633;42.716;23.312;2023-06-22T02:09:01;9.57;;;7.35;;
22935;SDS011;11633;42.716;23.312;2023-06-22T02:11:27;9.18;;;7.35;;
22935;SDS011;11633;42.716;23.312;2023-06-22T02:13:54;9.98;;;7.53;;
22935;SDS011;11633;42.716;23.312;2023-06-22T02:16:20;8.40;;;7.60;;
22935;SDS011;11633;42.716;23.312;2023-06-22T02:18:48;9.18;;;8.20;;
22935;SDS011;11633;42.716;23.312;2023-06-22T02:21:20;9.02;;;8.13;;
22935;SDS011;11633;42.716;23.312;2023-06-22T02:23:45;9.30;;;8.20;;
22935;SDS011;11633;42.716;23.312;2023-06-22T02:26:11;8.07;;;7.22;;
22935;SDS011;11633;42.716;23.312;2023-06-22T02:28:36;10.90;;;7.63;;
22935;SDS011;11633;42.716;23.312;2023-06-22T02:31:01;8.50;;;7.70;;
22935;SDS011;11633;42.716;23.312;2023-06-22T02:33:27;8.68;;;7.78;;
22935;SDS011;11633;42.716;23.312;2023-06-22T02:35:52;16.20;;;8.13;;
22935;SDS011;11633;42.716;23.312;2023-06-22T02:38:18;10.25;;;7.75;;
22935;SDS011;11633;42.716;23.312;2023-06-22T02:40:44;11.57;;;8.50;;
22935;SDS011;11633;42.716;23.312;2023-06-22T02:43:09;8.77;;;7.88;;
22935;SDS011;11633;42.716;23.312;2023-06-22T02:45:35;9.43;;;8.45;;
22935;SDS011;11633;42.716;23.312;2023-06-22T02:48:00;11.38;;;8.88;;
22935;SDS011;11633;42.716;23.312;2023-06-22T02:50:25;11.05;;;8.82;;
22935;SDS011;11633;42.716;23.312;2023-06-22T02:52:50;8.98;;;8.10;;
22935;SDS011;11633;42.716;23.312;2023-06-22T02:55:16;9.15;;;8.25;;
22935;SDS011;11633;42.716;23.312;2023-06-22T02:57:41;10.07;;;8.38;;
22935;SDS011;11633;42.716;23.312;2023-06-22T03:00:09;9.23;;;8.23;;
22935;SDS011;11633;42.716;23.312;2023-06-22T03:02:42;9.43;;;8.40;;
22935;SDS011;11633;42.716;23.312;2023-06-22T03:05:07;12.52;;;7.75;;
22935;SDS011;11633;42.716;23.312;2023-06-22T03:07:41;9.00;;;7.93;;
22935;SDS011;11633;42.716;23.312;2023-06-22T03:10:08;9.55;;;8.65;;
22935;SDS011;11633;42.716;23.312;2023-06-22T03:12:34;9.25;;;8.32;;
22935;SDS011;11633;42.716;23.312;2023-06-22T03:14:59;9.55;;;8.65;;
22935;SDS011;11633;42.716;23.312;2023-06-22T03:17:24;12.63;;;8.55;;
22935;SDS011;11633;42.716;23.312;2023-06-22T03:19:50;12.52;;;8.90;;
22935;SDS011;11633;42.716;23.312;2023-06-22T03:22:15;10.90;;;9.80;;
22935;SDS011;11633;42.716;23.312;2023-06-22T03:24:40;13.35;;;8.90;;
22935;SDS011;11633;42.716;23.312;2023-06-22T03:27:05;11.05;;;9.02;;
22935;SDS011;11633;42.716;23.312;2023-06-22T03:29:31;11.20;;;8.73;;
22935;SDS011;11633;42.716;23.312;2023-06-22T03:31:56;8.88;;;8.07;;
22935;SDS011;11633;42.716;23.312;2023-06-22T03:34:21;9.88;;;8.88;;
22935;SDS011;11633;42.716;23.312;2023-06-22T03:36:46;10.85;;;8.25;;
22935;SDS011;11633;42.716;23.312;2023-06-22T03:39:12;9.27;;;8.15;;
22935;SDS011;11633;42.716;23.312;2023-06-22T03:41:37;10.27;;;7.93;;
22935;SDS011;11633;42.716;23.312;2023-06-22T03:44:02;9.55;;;8.65;;
22935;SDS011;11633;42.716;23.312;2023-06-22T03:46:28;9.43;;;8.15;;
22935;SDS011;11633;42.716;23.312;2023-06-22T03:48:53;9.55;;;7.75;;
22935;SDS011;11633;42.716;23.312;2023-06-22T03:51:18;10.52;;;8.27;;
22935;SDS011;11633;42.716;23.312;2023-06-22T03:53:43;8.95;;;7.32;;
22935;SDS011;11633;42.716;23.312;2023-06-22T03:56:09;10.15;;;7.60;;
22935;SDS011;11633;42.716;23.312;2023-06-22T03:58:34;12.35;;;7.68;;
22935;SDS011;11633;42.716;23.312;2023-06-22T04:01:01;9.02;;;7.07;;
22935;SDS011;11633;42.716;23.312;2023-06-22T04:03:26;7.90;;;7.10;;
22935;SDS011;11633;42.716;23.312;2023-06-22T04:05:55;8.73;;;7.28;;
22935;SDS011;11633;42.716;23.312;2023-06-22T04:08:20;7.30;;;6.60;;
22935;SDS011;11633;42.716;23.312;2023-06-22T04:10:45;8.48;;;7.13;;
22935;SDS011;11633;42.716;23.312;2023-06-22T04:13:10;9.55;;;6.93;;
22935;SDS011;11633;42.716;23.312;2023-06-22T04:15:36;7.97;;;7.18;;
22935;SDS011;11633;42.716;23.312;2023-06-22T04:18:01;9.80;;;7.03;;
22935;SDS011;11633;42.716;23.312;2023-06-22T04:20:26;10.18;;;7.55;;
22935;SDS011;11633;42.716;23.312;2023-06-22T04:22:54;10.50;;;7.38;;
22935;SDS011;11633;42.716;23.312;2023-06-22T04:25:20;8.50;;;6.85;;
22935;SDS011;11633;42.716;23.312;2023-06-22T04:27:45;8.13;;;7.30;;
22935;SDS011;11633;42.716;23.312;2023-06-22T04:30:11;8.82;;;7.93;;
22935;SDS011;11633;42.716;23.312;2023-06-22T04:32:37;10.50;;;8.25;;
22935;SDS011;11633;42.716;23.312;2023-06-22T04:35:03;10.77;;;8.15;;
22935;SDS011;11633;42.716;23.312;2023-06-22T04:37:29;9.60;;;7.75;;
22935;SDS011;11633;42.716;23.312;2023-06-22T04:39:55;9.75;;;7.50;;
22935;SDS011;11633;42.716;23.312;2023-06-22T04:42:20;8.20;;;7.30;;
22935;SDS011;11633;42.716;23.312;2023-06-22T04:44:45;8.93;;;7.57;;
22935;SDS011;11633;42.716;23.312;2023-06-22T04:47:11;10.98;;;8.38;;
22935;SDS011;11633;42.716;23.312;2023-06-22T04:49:36;9.82;;;8.82;;
22935;SDS011;11633;42.716;23.312;2023-06-22T04:52:03;8.95;;;8.18;;
22935;SDS011;11633;42.716;23.312;2023-06-22T04:54:28;12.23;;;10.88;;
22935;SDS011;11633;42.716;23.312;2023-06-22T04:56:54;9.82;;;8.82;;
22935;SDS011;11633;42.716;23.312;2023-06-22T04:59:26;10.60;;;9.60;;
22935;SDS011;11633;42.716;23.312;2023-06-22T05:01:53;9.82;;;8.82;;
22935;SDS011;11633;42.716;23.312;2023-06-22T05:04:19;11.23;;;9.93;;
22935;SDS011;11633;42.716;23.312;2023-06-22T05:06:44;10.20;;;8.95;;
22935;SDS011;11633;42.716;23.312;2023-06-22T05:09:10;8.27;;;7.15;;
22935;SDS011;11633;42.716;23.312;2023-06-22T05:11:37;9.85;;;8.07;;
22935;SDS011;11633;42.716;23.312;2023-06-22T05:14:02;9.10;;;8.20;;
22935;SDS011;11633;42.716;23.312;2023-06-22T05:16:27;8.90;;;7.50;;
22935;SDS011;11633;42.716;23.312;2023-06-22T05:18:53;9.07;;;7.68;;
22935;SDS011;11633;42.716;23.312;2023-06-22T05:21:25;8.65;;;7.75;;
22935;SDS011;11633;42.716;23.312;2023-06-22T05:23:51;8.15;;;7.45;;
22935;SDS011;11633;42.716;23.312;2023-06-22T05:26:17;9.38;;;8.10;;
22935;SDS011;11633;42.716;23.312;2023-06-22T05:28:43;10.73;;;8.15;;
22935;SDS011;11633;42.716;23.312;2023-06-22T05:31:11;8.35;;;7.55;;
22935;SDS011;11633;42.716;23.312;2023-06-22T05:33:36;11.88;;;9.27;;
22935;SDS011;11633;42.716;23.312;2023-06-22T05:36:01;9.98;;;8.52;;
22935;SDS011;11633;42.716;23.312;2023-06-22T05:38:26;11.27;;;8.07;;
22935;SDS011;11633;42.716;23.312;2023-06-22T05:40:52;9.15;;;8.32;;
22935;SDS011;11633;42.716;23.312;2023-06-22T05:43:17;9.68;;;8.77;;
22935;SDS011;11633;42.716;23.312;2023-06-22T05:45:43;10.85;;;8.63;;
22935;SDS011;11633;42.716;23.312;2023-06-22T05:48:08;10.00;;;8.77;;
22935;SDS011;11633;42.716;23.312;2023-06-22T05:50:33;10.73;;;9.47;;
22935;SDS011;11633;42.716;23.312;2023-06-22T05:52:58;12.50;;;10.27;;
22935;SDS011;11633;42.716;23.312;2023-06-22T05:55:24;16.50;;;11.77;;
22935;SDS011;11633;42.716;23.312;2023-06-22T05:57:49;12.13;;;10.47;;
22935;SDS011;11633;42.716;23.312;2023-06-22T06:00:14;10.90;;;9.80;;
22935;SDS011;11633;42.716;23.312;2023-06-22T06:02:40;11.20;;;8.80;;
22935;SDS011;11633;42.716;23.312;2023-06-22T06:05:10;13.98;;;10.02;;
22935;SDS011;11633;42.716;23.312;2023-06-22T06:07:35;9.07;;;7.78;;
22935;SDS011;11633;42.716;23.312;2023-06-22T06:10:00;10.50;;;8.63;;
22935;SDS011;11633;42.716;23.312;2023-06-22T06:12:26;7.22;;;6.63;;
22935;SDS011;11633;42.716;23.312;2023-06-22T06:14:51;6.60;;;6.07;;
22935;SDS011;11633;42.716;23.312;2023-06-22T06:17:18;7.68;;;6.88;;
22935;SDS011;11633;42.716;23.312;2023-06-22T06:19:43;8.57;;;7.70;;
22935;SDS011;11633;42.716;23.312;2023-06-22T06:22:08;8.23;;;6.80;;
22935;SDS011;11633;42.716;23.312;2023-06-22T06:24:34;10.50;;;7.70;;
22935;SDS011;11633;42.716;23.312;2023-06-22T06:26:59;7.33;;;6.70;;
22935;SDS011;11633;42.716;23.312;2023-06-22T06:29:24;9.25;;;7.18;;
22935;SDS011;11633;42.716;23.312;2023-06-22T06:31:49;11.83;;;8.90;;
22935;SDS011;11633;42.716;23.312;2023-06-22T06:34:15;8.80;;;7.72;;
22935;SDS011;11633;42.716;23.312;2023-06-22T06:36:40;9.63;;;7.80;;
22935;SDS011;11633;42.716;23.312;2023-06-22T06:39:05;12.63;;;7.82;;
22935;SDS011;11633;42.716;23.312;2023-06-22T06:41:31;8.52;;;7.53;;
22935;SDS011;11633;42.716;23.312;2023-06-22T06:43:56;11.63;;;8.03;;
22935;SDS011;11633;42.716;23.312;2023-06-22T06:46:21;13.40;;;7.80;;
22935;SDS011;11633;42.716;23.312;2023-06-22T06:48:46;11.40;;;7.13;;
22935;SDS011;11633;42.716;23.312;2023-06-22T06:51:12;10.98;;;8.32;;
22935;SDS011;11633;42.716;23.312;2023-06-22T06:53:37;12.20;;;7.50;;
22935;SDS011;11633;42.716;23.312;2023-06-22T06:56:03;11.13;;;8.15;;
22935;SDS011;11633;42.716;23.312;2023-06-22T06:58:30;8.35;;;7.55;;
22935;SDS011;11633;42.716;23.312;2023-06-22T07:00:55;10.90;;;8.88;;
22935;SDS011;11633;42.716;23.312;2023-06-22T07:03:20;9.15;;;7.38;;
22935;SDS011;11633;42.716;23.312;2023-06-22T07:05:46;11.35;;;8.07;;
22935;SDS011;11633;42.716;23.312;2023-06-22T07:08:11;10.93;;;7.80;;
22935;SDS011;11633;42.716;23.312;2023-06-22T07:10:36;10.27;;;7.10;;
22935;SDS011;11633;42.716;23.312;2023-06-22T07:13:01;9.70;;;7.77;;
22935;SDS011;11633;42.716;23.312;2023-06-22T07:15:27;12.87;;;8.90;;
22935;SDS011;11633;42.716;23.312;2023-06-22T07:17:52;9.37;;;8.47;;
22935;SDS011;11633;42.716;23.312;2023-06-22T07:20:17;9.33;;;8.53;;
22935;SDS011;11633;42.716;23.312;2023-06-22T07:22:44;13.30;;;9.25;;
22935;SDS011;11633;42.716;23.312;2023-06-22T07:25:10;10.70;;;8.77;;
22935;SDS011;11633;42.716;23.312;2023-06-22T07:27:38;10.52;;;8.77;;
22935;SDS011;11633;42.716;23.312;2023-06-22T07:30:08;10.40;;;9.15;;
22935;SDS011;11633;42.716;23.312;2023-06-22T07:32:33;10.18;;;8.60;;
22935;SDS011;11633;42.716;23.312;2023-06-22T07:34:58;10.60;;;9.20;;
22935;SDS011;11633;42.716;23.312;2023-06-22T07:37:24;10.15;;;8.55;;
22935;SDS011;11633;42.716;23.312;2023-06-22T07:39:49;11.25;;;8.25;;
22935;SDS011;11633;42.716;23.312;2023-06-22T07:42:18;9.70;;;8.70;;
22935;SDS011;11633;42.716;23.312;2023-06-22T07:44:44;12.23;;;9.00;;
22935;SDS011;11633;42.716;23.312;2023-06-22T07:47:09;9.25;;;8.27;;
22935;SDS011;11633;42.716;23.312;2023-06-22T07:49:34;8.97;;;8.03;;
22935;SDS011;11633;42.716;23.312;2023-06-22T07:51:59;15.23;;;8.20;;
22935;SDS011;11633;42.716;23.312;2023-06-22T07:54:26;9.73;;;8.68;;
22935;SDS011;11633;42.716;23.312;2023-06-22T07:56:51;8.63;;;7.72;;
22935;SDS011;11633;42.716;23.312;2023-06-22T07:59:17;9.60;;;8.73;;
22935;SDS011;11633;42.716;23.312;2023-06-22T08:01:42;10.02;;;8.98;;
22935;SDS011;11633;42.716;23.312;2023-06-22T08:04:08;11.93;;;8.57;;
22935;SDS011;11633;42.716;23.312;2023-06-22T08:06:33;9.75;;;8.70;;
22935;SDS011;11633;42.716;23.312;2023-06-22T08:08:58;9.60;;;8.48;;
22935;SDS011;11633;42.716;23.312;2023-06-22T08:11:24;10.93;;;8.63;;
22935;SDS011;11633;42.716;23.312;2023-06-22T08:13:50;9.68;;;8.57;;
22935;SDS011;11633;42.716;23.312;2023-06-22T08:16:15;9.68;;;8.68;;
22935;SDS011;11633;42.716;23.312;2023-06-22T08:18:40;10.20;;;9.00;;
22935;SDS011;11633;42.716;23.312;2023-06-22T08:21:06;9.38;;;8.48;;
22935;SDS011;11633;42.716;23.312;2023-06-22T08:23:31;10.03;;;9.00;;
22935;SDS011;11633;42.716;23.312;2023-06-22T08:25:56;15.55;;;9.82;;
22935;SDS011;11633;42.716;23.312;2023-06-22T08:28:22;11.18;;;9.88;;
22935;SDS011;11633;42.716;23.312;2023-06-22T08:30:47;9.75;;;8.77;;
22935;SDS011;11633;42.716;23.312;2023-06-22T08:33:12;12.95;;;10.75;;
22935;SDS011;11633;42.716;23.312;2023-06-22T08:35:38;12.53;;;11.07;;
22935;SDS011;11633;42.716;23.312;2023-06-22T08:38:03;13.93;;;8.60;;
22935;SDS011;11633;42.716;23.312;2023-06-22T08:40:29;11.52;;;9.05;;
22935;SDS011;11633;42.716;23.312;2023-06-22T08:42:54;9.15;;;7.78;;
22935;SDS011;11633;42.716;23.312;2023-06-22T08:45:19;9.60;;;8.70;;
22935;SDS011;11633;42.716;23.312;2023-06-22T08:47:45;9.40;;;8.50;;
22935;SDS011;11633;42.716;23.312;2023-06-22T08:50:10;9.40;;;8.60;;
22935;SDS011;11633;42.716;23.312;2023-06-22T08:52:36;10.20;;;8.77;;
22935;SDS011;11633;42.716;23.312;2023-06-22T08:55:02;9.02;;;8.13;;
22935;SDS011;11633;42.716;23.312;2023-06-22T08:57:27;8.68;;;7.97;;
22935;SDS011;11633;42.716;23.312;2023-06-22T08:59:53;12.30;;;8.38;;
22935;SDS011;11633;42.716;23.312;2023-06-22T09:02:18;10.48;;;8.95;;
22935;SDS011;11633;42.716;23.312;2023-06-22T09:04:45;9.70;;;8.77;;
22935;SDS011;11633;42.716;23.312;2023-06-22T09:07:11;8.75;;;7.80;;
22935;SDS011;11633;42.716;23.312;2023-06-22T09:09:36;8.98;;;8.18;;
22935;SDS011;11633;42.716;23.312;2023-06-22T09:12:02;8.25;;;7.45;;
22935;SDS011;11633;42.716;23.312;2023-06-22T09:14:27;9.35;;;8.55;;
22935;SDS011;11633;42.716;23.312;2023-06-22T09:16:52;9.13;;;8.32;;
22935;SDS011;11633;42.716;23.312;2023-06-22T09:19:18;8.63;;;7.82;;
22935;SDS011;11633;42.716;23.312;2023-06-22T09:21:43;7.90;;;7.15;;
22935;SDS011;11633;42.716;23.312;2023-06-22T09:24:08;7.80;;;7.15;;
22935;SDS011;11633;42.716;23.312;2023-06-22T09:26:34;8.20;;;6.68;;
22935;SDS011;11633;42.716;23.312;2023-06-22T09:28:59;8.35;;;7.65;;
22935;SDS011;11633;42.716;23.312;2023-06-22T09:31:25;7.70;;;6.93;;
22935;SDS011;11633;42.716;23.312;2023-06-22T09:33:53;8.13;;;7.32;;
22935;SDS011;11633;42.716;23.312;2023-06-22T09:36:19;7.13;;;6.53;;
22935;SDS011;11633;42.716;23.312;2023-06-22T09:38:45;7.10;;;6.40;;
22935;SDS011;11633;42.716;23.312;2023-06-22T09:41:10;7.65;;;6.75;;
22935;SDS011;11633;42.716;23.312;2023-06-22T09:43:35;7.70;;;6.90;;
22935;SDS011;11633;42.716;23.312;2023-06-22T09:46:01;7.97;;;7.20;;
22935;SDS011;11633;42.716;23.312;2023-06-22T09:48:27;7.70;;;7.07;;
22935;SDS011;11633;42.716;23.312;2023-06-22T09:50:52;9.27;;;8.07;;
22935;SDS011;11633;42.716;23.312;2023-06-22T09:53:17;9.15;;;8.23;;
22935;SDS011;11633;42.716;23.312;2023-06-22T09:55:43;8.65;;;7.85;;
22935;SDS011;11633;42.716;23.312;2023-06-22T09:58:08;8.95;;;8.07;;
22935;SDS011;11633;42.716;23.312;2023-06-22T10:00:33;9.48;;;8.27;;
22935;SDS011;11633;42.716;23.312;2023-06-22T10:02:59;9.63;;;7.75;;
22935;SDS011;11633;42.716;23.312;2023-06-22T10:05:24;8.50;;;7.53;;
22935;SDS011;11633;42.716;23.312;2023-06-22T10:07:50;9.48;;;8.63;;
22935;SDS011;11633;42.716;23.312;2023-06-22T10:10:15;11.02;;;8.23;;
22935;SDS011;11633;42.716;23.312;2023-06-22T10:12:41;8.38;;;7.63;;
22935;SDS011;11633;42.716;23.312;2023-06-22T10:15:07;9.32;;;8.43;;
22935;SDS011;11633;42.716;23.312;2023-06-22T10:17:32;8.80;;;7.90;;
22935;SDS011;11633;42.716;23.312;2023-06-22T10:19:57;9.52;;;8.55;;
22935;SDS011;11633;42.716;23.312;2023-06-22T10:22:23;9.40;;;8.37;;
22935;SDS011;11633;42.716;23.312;2023-06-22T10:24:48;9.68;;;8.70;;
22935;SDS011;11633;42.716;23.312;2023-06-22T10:27:13;8.90;;;8.05;;
22935;SDS011;11633;42.716;23.312;2023-06-22T10:29:39;10.57;;;7.40;;
22935;SDS011;11633;42.716;23.312;2023-06-22T10:32:04;9.02;;;8.15;;
22935;SDS011;11633;42.716;23.312;2023-06-22T10:34:29;8.77;;;8.02;;
22935;SDS011;11633;42.716;23.312;2023-06-22T10:36:55;7.90;;;7.13;;
22935;SDS011;11633;42.716;23.312;2023-06-22T10:39:20;8.82;;;7.82;;
22935;SDS011;11633;42.716;23.312;2023-06-22T10:41:45;8.10;;;7.30;;
22935;SDS011;11633;42.716;23.312;2023-06-22T10:44:10;8.63;;;7.78;;
22935;SDS011;11633;42.716;23.312;2023-06-22T10:46:37;7.93;;;7.15;;
22935;SDS011;11633;42.716;23.312;2023-06-22T10:49:02;7.78;;;7.07;;
22935;SDS011;11633;42.716;23.312;2023-06-22T10:51:27;10.30;;;8.75;;
22935;SDS011;11633;42.716;23.312;2023-06-22T10:53:53;7.93;;;7.22;;
22935;SDS011;11633;42.716;23.312;2023-06-22T10:56:18;8.77;;;7.97;;
22935;SDS011;11633;42.716;23.312;2023-06-22T10:58:44;11.07;;;7.20;;
22935;SDS011;11633;42.716;23.312;2023-06-22T11:01:10;7.72;;;7.10;;
22935;SDS011;11633;42.716;23.312;2023-06-22T11:03:35;8.27;;;7.53;;
22935;SDS011;11633;42.716;23.312;2023-06-22T11:06:00;7.85;;;7.10;;
22935;SDS011;11633;42.716;23.312;2023-06-22T11:08:25;9.20;;;7.47;;
22935;SDS011;11633;42.716;23.312;2023-06-22T11:10:51;8.55;;;7.53;;
22935;SDS011;11633;42.716;23.312;2023-06-22T11:13:16;7.90;;;7.20;;
22935;SDS011;11633;42.716;23.312;2023-06-22T11:15:44;8.73;;;7.85;;
22935;SDS011;11633;42.716;23.312;2023-06-22T11:18:09;8.35;;;7.38;;
22935;SDS011;11633;42.716;23.312;2023-06-22T11:20:34;8.17;;;7.37;;
22935;SDS011;11633;42.716;23.312;2023-06-22T11:23:03;9.18;;;8.38;;
22935;SDS011;11633;42.716;23.312;2023-06-22T11:25:28;9.10;;;6.93;;
22935;SDS011;11633;42.716;23.312;2023-06-22T11:27:54;8.90;;;7.70;;
22935;SDS011;11633;42.716;23.312;2023-06-22T11:30:19;8.23;;;7.53;;
22935;SDS011;11633;42.716;23.312;2023-06-22T11:32:44;8.10;;;7.40;;
22935;SDS011;11633;42.716;23.312;2023-06-22T11:35:10;8.10;;;7.40;;
22935;SDS011;11633;42.716;23.312;2023-06-22T11:37:35;7.20;;;6.57;;
22935;SDS011;11633;42.716;23.312;2023-06-22T11:40:00;8.05;;;7.35;;
22935;SDS011;11633;42.716;23.312;2023-06-22T11:42:26;8.10;;;7.38;;
22935;SDS011;11633;42.716;23.312;2023-06-22T11:44:51;7.75;;;6.95;;
22935;SDS011;11633;42.716;23.312;2023-06-22T11:47:16;8.57;;;7.78;;
22935;SDS011;11633;42.716;23.312;2023-06-22T11:49:42;8.15;;;7.45;;
22935;SDS011;11633;42.716;23.312;2023-06-22T11:52:07;7.45;;;6.80;;
22935;SDS011;11633;42.716;23.312;2023-06-22T11:54:32;7.07;;;6.47;;
22935;SDS011;11633;42.716;23.312;2023-06-22T11:56:58;9.25;;;6.20;;
22935;SDS011;11633;42.716;23.312;2023-06-22T11:59:23;7.60;;;6.82;;
22935;SDS011;11633;42.716;23.312;2023-06-22T12:01:49;6.78;;;6.18;;
22935;SDS011;11633;42.716;23.312;2023-06-22T12:04:16;8.70;;;6.93;;
22935;SDS011;11633;42.716;23.312;2023-06-22T12:06:41;7.75;;;6.82;;
22935;SDS011;11633;42.716;23.312;2023-06-22T12:09:07;7.68;;;6.88;;
22935;SDS011;11633;42.716;23.312;2023-06-22T12:11:33;25.08;;;8.80;;
22935;SDS011;11633;42.716;23.312;2023-06-22T12:13:58;17.63;;;9.07;;
22935;SDS011;11633;42.716;23.312;2023-06-22T12:16:27;12.95;;;8.43;;
22935;SDS011;11633;42.716;23.312;2023-06-22T12:18:52;12.48;;;7.75;;
22935;SDS011;11633;42.716;23.312;2023-06-22T12:21:17;9.75;;;8.05;;
22935;SDS011;11633;42.716;23.312;2023-06-22T12:23:42;10.35;;;7.85;;
22935;SDS011;11633;42.716;23.312;2023-06-22T12:26:08;9.13;;;8.23;;
22935;SDS011;11633;42.716;23.312;2023-06-22T12:28:33;9.88;;;8.23;;
22935;SDS011;11633;42.716;23.312;2023-06-22T12:30:58;13.27;;;7.88;;
22935;SDS011;11633;42.716;23.312;2023-06-22T12:33:23;7.57;;;6.87;;
22935;SDS011;11633;42.716;23.312;2023-06-22T12:35:49;9.30;;;6.28;;
22935;SDS011;11633;42.716;23.312;2023-06-22T12:38:14;7.88;;;5.68;;
22935;SDS011;11633;42.716;23.312;2023-06-22T12:40:39;8.95;;;6.55;;
22935;SDS011;11633;42.716;23.312;2023-06-22T12:43:05;7.13;;;5.97;;
22935;SDS011;11633;42.716;23.312;2023-06-22T12:45:30;11.15;;;6.75;;
22935;SDS011;11633;42.716;23.312;2023-06-22T12:47:58;8.90;;;6.10;;
22935;SDS011;11633;42.716;23.312;2023-06-22T12:50:24;8.35;;;5.40;;
22935;SDS011;11633;42.716;23.312;2023-06-22T12:52:49;8.20;;;6.35;;
22935;SDS011;11633;42.716;23.312;2023-06-22T12:55:15;12.57;;;5.70;;
22935;SDS011;11633;42.716;23.312;2023-06-22T12:57:40;8.73;;;5.05;;
22935;SDS011;11633;42.716;23.312;2023-06-22T13:00:05;6.07;;;4.45;;
22935;SDS011;11633;42.716;23.312;2023-06-22T13:02:32;8.57;;;5.35;;
22935;SDS011;11633;42.716;23.312;2023-06-22T13:04:58;9.60;;;4.75;;
22935;SDS011;11633;42.716;23.312;2023-06-22T13:07:23;6.45;;;4.55;;
22935;SDS011;11633;42.716;23.312;2023-06-22T13:09:48;9.25;;;5.80;;
22935;SDS011;11633;42.716;23.312;2023-06-22T13:12:16;8.55;;;6.03;;
22935;SDS011;11633;42.716;23.312;2023-06-22T13:14:41;10.57;;;5.85;;
22935;SDS011;11633;42.716;23.312;2023-06-22T13:17:08;7.35;;;5.32;;
22935;SDS011;11633;42.716;23.312;2023-06-22T13:19:33;8.65;;;5.57;;
22935;SDS011;11633;42.716;23.312;2023-06-22T13:21:59;8.00;;;5.88;;
22935;SDS011;11633;42.716;23.312;2023-06-22T13:24:25;7.35;;;5.68;;
22935;SDS011;11633;42.716;23.312;2023-06-22T13:26:50;7.15;;;5.32;;
22935;SDS011;11633;42.716;23.312;2023-06-22T13:29:15;11.15;;;5.95;;
22935;SDS011;11633;42.716;23.312;2023-06-22T13:31:40;8.52;;;5.78;;
22935;SDS011;11633;42.716;23.312;2023-06-22T13:34:06;13.57;;;11.45;;
22935;SDS011;11633;42.716;23.312;2023-06-22T13:36:31;7.00;;;5.65;;
22935;SDS011;11633;42.716;23.312;2023-06-22T13:38:57;10.98;;;6.57;;
22935;SDS011;11633;42.716;23.312;2023-06-22T13:41:22;8.35;;;7.43;;
22935;SDS011;11633;42.716;23.312;2023-06-22T13:43:47;9.25;;;7.50;;
22935;SDS011;11633;42.716;23.312;2023-06-22T13:46:12;8.55;;;7.20;;
22935;SDS011;11633;42.716;23.312;2023-06-22T13:48:38;8.65;;;6.70;;
22935;SDS011;11633;42.716;23.312;2023-06-22T13:51:03;8.13;;;5.70;;
22935;SDS011;11633;42.716;23.312;2023-06-22T13:53:28;11.48;;;6.30;;
22935;SDS011;11633;42.716;23.312;2023-06-22T13:55:53;8.48;;;5.85;;
22935;SDS011;11633;42.716;23.312;2023-06-22T13:58:19;11.35;;;6.28;;
22935;SDS011;11633;42.716;23.312;2023-06-22T14:00:45;8.32;;;6.50;;
22935;SDS011;11633;42.716;23.312;2023-06-22T14:03:10;9.40;;;6.72;;
22935;SDS011;11633;42.716;23.312;2023-06-22T14:05:35;7.53;;;6.63;;
22935;SDS011;11633;42.716;23.312;2023-06-22T14:08:00;9.70;;;6.10;;
22935;SDS011;11633;42.716;23.312;2023-06-22T14:10:26;6.93;;;6.23;;
22935;SDS011;11633;42.716;23.312;2023-06-22T14:12:51;10.13;;;7.40;;
22935;SDS011;11633;42.716;23.312;2023-06-22T14:15:18;8.77;;;6.60;;
22935;SDS011;11633;42.716;23.312;2023-06-22T14:17:43;8.52;;;6.70;;
22935;SDS011;11633;42.716;23.312;2023-06-22T14:20:08;9.07;;;7.00;;
22935;SDS011;11633;42.716;23.312;2023-06-22T14:22:33;9.50;;;6.43;;
22935;SDS011;11633;42.716;23.312;2023-06-22T14:25:00;8.90;;;6.80;;
22935;SDS011;11633;42.716;23.312;2023-06-22T14:27:26;8.45;;;7.22;;
22935;SDS011;11633;42.716;23.312;2023-06-22T14:29:51;8.27;;;6.28;;